Terminal Aerodrome Forecast
Issued by NWS Wilmington, OH

Current Version | Previous Version | Text Only | Print | Product List | Glossary On
Versions: 1 2 3 4 5 6 7 8 9 10 11 12 13 14 15 16 17 18 19 20 21 22
141
FTUS41 KILN 282127 AAA
TAFCVG
TAF AMD
KCVG 282127Z 2821/2924 19009KT P6SM FEW050 SCT200
     FM290700 19005KT P6SM FEW250 WS020/22035KT
     FM291300 20008KT P6SM FEW200
     FM291500 21012G20KT P6SM FEW050 SCT130
     FM292300 20007KT P6SM SCT100=

USA.gov is the U.S. government's official web portal to all federal, state and local government web resources and services.